x

Columbia River Bar - 20nm West Of Columbia River Mouth (46029) Wave Buoy

4:50am - Thu 28th Aug 2014 All times are PDT. -7 hours from GMT.

  • Sig Wave height 3.0ft
  • Swell Direction
  • Peak Period 16s
  • Average Period 6s
  • Wind
    2mph
  • Sea Temp 58°f
  • Air Temp 60°f
  • Sea Pressure 1019.6mb
  • Columbia River Bar - 20nm West Of Columbia River Mouth
  • Columbia River Bar - 20nm West Of Columbia River Mouth

More Historic Weather Station data

Upgrade to MSW Pro to gain access to the past 30 days of data for over 8000 Wavebouys and Weather Stations around the globe.

Join Pro

Comparision Forecast

View Surf forecast
   
Thu 08/28 4:50am 3ft 16s 6s 2
mph
1019.6mb 58f 60f
3:50am 3.5ft 16s 6s  -  mph 1019.5mb 58f 59f
2:50am 3.5ft 16s 6s 2
mph
1019.4mb 58f 59f
1:50am 3.5ft 8s 6s 4 7 mph 1019.3mb 58f 59f
12:50am 3.5ft 16s 6s 4 7 mph 1019.3mb 58f 59f
Wed 08/27 11:50pm 3.5ft 16s 6s 4
mph
1019.3mb 58f 59f
10:50pm 3.5ft 8s 5s 7
mph
1019.6mb 58f 59f
9:50pm 3.5ft 16s 5s 9 11 mph 1019.6mb 58f 59f
8:50pm 3.5ft 6s 5s 13 16 mph 1019.6mb 59f 60f
7:50pm 3.5ft 7s 5s 13 18 mph 1019.3mb 59f 61f
6:50pm 3.5ft 17s 5s 11 13 mph 1019.2mb 60f 60f
5:50pm 3.5ft 8s 5s 11 13 mph 1019.4mb 60f 60f
4:50pm 4ft 16s 6s 13 16 mph 1019.3mb 60f 61f
3:50pm 4ft 8s 6s 9
mph
1019.4mb 60f 60f
2:50pm 3.5ft 8s 6s 7 9 mph 1019.6mb 60f 60f
1:50pm 3.5ft 17s 6s 7 9 mph 1019.5mb 60f 60f
12:50pm 3.5ft 8s 6s 7 9 mph 1019.8mb 59f 60f
11:50am 3.5ft 8s 6s 7 9 mph 1019.7mb 59f 60f
10:50am 3.5ft 9s 6s 7 9 mph 1019.7mb 58f 59f
9:50am 3.5ft 8s 6s 9 11 mph 1019.3mb 58f 60f
8:50am 3.5ft 9s 6s 4 7 mph 1019mb 58f 59f
7:50am 4ft 8s 6s 9
mph
1018.8mb 60f 60f
6:50am 4ft 8s 5s 9
mph
1018.5mb 60f 60f
5:50am 4.5ft 8s 5s 7 9 mph 1018mb 60f 59f
4:50am 4.5ft 8s 5s 7 9 mph 1017.9mb 60f 58f
3:50am 4.5ft 7s 5s 13 16 mph 1017.6mb 60f 58f
2:50am 4.5ft 9s 5s 13 16 mph 1017.6mb 58f 58f
1:50am 4.5ft 8s 5s 13 16 mph 1017.5mb 58f 58f
12:50am 4.5ft 7s 5s 11 16 mph 1017.3mb 58f 58f
Tue 08/26 11:50pm 4ft 7s 5s 11
mph
1017.3mb 58f 58f
10:50pm 4ft 8s 5s 11 13 mph 1017.3mb 58f 58f
9:50pm 4ft 8s 5s 13 16 mph 1017.4mb 59f 58f
8:50pm 3.5ft 7s 5s 13
mph
1017.2mb 60f 58f
7:50pm 3.5ft 6s 5s 13 18 mph 1017mb 61f 58f
6:50pm 4ft 7s 5s 16 20 mph 1016.9mb 61f 59f
5:50pm 3.5ft 7s 5s 18 20 mph 1016.8mb 61f 60f
4:50pm 4ft 6s 5s 16 18 mph 1017.3mb 61f 60f
3:50pm 3.5ft 6s 5s 16 20 mph 1017.6mb 61f 60f
2:50pm 3.5ft 7s 5s 16 18 mph 1017.7mb 61f 59f
1:50pm 4ft 7s 5s 13 16 mph 1018mb 60f 58f
12:50pm 3.5ft 7s 5s 11 13 mph 1018mb 60f 58f
11:50am 3.5ft 6s 5s 13 16 mph 1018.2mb 60f 57f
10:50am 3.5ft 6s 5s 13
mph
1018.3mb 60f 57f
9:50am 3.5ft 7s 4s 13 18 mph 1018.1mb 60f 57f
8:50am 4.5ft 6s 5s 16 18 mph 1017.9mb 60f 57f
7:50am 4.5ft 7s 5s 13 18 mph 1017.8mb 59f 57f
6:50am 4.5ft 7s 5s 13 16 mph 1017.4mb 59f 58f
5:50am 4.5ft 7s 5s 13 16 mph 1017mb 59f 58f
4:50am 4.5ft 7s 5s 13 18 mph 1016.9mb 59f 58f
3:50am 5ft 7s 5s 13 16 mph 1016.5mb 59f 57f
2:50am 5ft 8s 6s 13 18 mph 1016.5mb 60f 57f
1:50am 5ft 8s 6s 13 18 mph 1016.6mb 60f 57f
12:50am 5ft 8s 5s 13 20 mph 1016.8mb 58f 57f
Mon 08/25 11:50pm 5ft 8s 5s 18 20 mph 1016.4mb 59f 57f
10:50pm 5.5ft 8s 5s 18 22 mph 1016.4mb 58f 57f
9:50pm 5ft 8s 5s 20 25 mph 1016.3mb 59f 58f
8:50pm 5ft 8s 5s 18 20 mph 1016mb 59f 58f
7:50pm 5ft 8s 5s 20 25 mph 1015.6mb 60f 59f
6:50pm 5ft 8s 5s 22 25 mph 1015.5mb 60f 58f
5:50pm 5.5ft 8s 6s 18 22 mph 1015.6mb 60f 60f
4:50pm 6ft 8s 6s 18 20 mph 1015.6mb 61f 61f
3:50pm 5.5ft 8s 6s 16 18 mph 1015.7mb 61f 61f
2:50pm 5ft 8s 6s 13 16 mph 1016mb 61f 59f
1:50pm 5.5ft 8s 6s 16 18 mph 1016.3mb 61f 58f
12:50pm 6ft 8s 6s 13 18 mph 1016.5mb 61f 57f
11:50am 5ft 8s 6s 13 16 mph 1016.6mb 59f 56f
10:50am 5ft 8s 6s 13 16 mph 1016.4mb 58f 55f
9:50am 6ft 8s 6s 16 18 mph 1016.5mb 58f 55f
8:50am 5.5ft 8s 6s 16 18 mph 1016.5mb 58f 55f
7:50am 5ft 8s 6s 16 18 mph 1016.2mb 58f 55f
6:50am 6ft 8s 6s 16 20 mph 1015.7mb 59f 55f
5:50am 6ft 8s 6s 18 20 mph 1015.5mb 59f 55f
4:50am 5ft 8s 6s 16 20 mph 1015.2mb 59f 55f
3:50am 5ft 8s 6s 13 16 mph 1015.4mb 59f 55f
2:50am 4.5ft 7s 6s 13 16 mph 1015.2mb 60f 56f
1:50am 4.5ft 8s 6s 13 16 mph 1015.2mb 60f 57f
12:50am 4.5ft 6s 5s 13 16 mph 1015.3mb 60f 57f
Sun 08/24 11:50pm 3.5ft 7s 6s 13 18 mph 1015.1mb 61f 59f
10:50pm 4ft 17s 6s 11 13 mph 1015mb 61f 60f
9:50pm 3.5ft 7s 6s 11 13 mph 1014.7mb 61f 61f
8:50pm 3ft 6s 5s 7
mph
1014.8mb 61f 61f
7:50pm 3ft 6s 5s 4
mph
1014.8mb 61f 61f
6:50pm 3.5ft 6s 6s 4
mph
1014.7mb 62f 61f
5:50pm 3.5ft 6s 5s 7 9 mph 1014.8mb 61f 62f
4:50pm 3ft 17s 5s 7 9 mph 1014.6mb 62f 61f
3:50pm 3.5ft 6s 6s 7 9 mph 1015mb 62f 61f
2:50pm 3.5ft 7s 5s 7
mph
1015.4mb 61f 60f
1:50pm 4ft 6s 5s 7
mph
1015.6mb 60f 60f